Saturday, January 20, 2018, 7:18 AM CST
Back to Local

KICT, Wichita Mid-continent Airport

Location: Wichita, KS, United States Lat: 37.65
Local Time: 7:18 AM CST (13:18 GMT) Lon: -97.433
Time Zone: US/Central Elev: 1332 ft

Show me the last for .
Show Decoded

2018-01-20 06:53 METAR KICT 201253Z 18012KT 10SM OVC018 09/08 A2980 RMK AO2 SLP092 T00940078 =
2018-01-20 05:53 METAR KICT 201153Z 18010KT 10SM OVC017 09/08 A2979 RMK AO2 SLP089 T00940078
                 10094 20044 53000 =
2018-01-20 04:53 METAR KICT 201053Z 18013G21KT 10SM OVC013 09/08 A2979 RMK AO2 SLP085 T00940078 =
2018-01-20 03:53 METAR KICT 200953Z 18012KT 10SM OVC009 09/07 A2980 RMK AO2 SLP089 T00890072 =
2018-01-20 02:53 METAR KICT 200853Z 17013KT 10SM OVC009 08/06 A2979 RMK AO2 SLP089 T00780061
                 58004 =
2018-01-20 02:32 METAR KICT 200832Z 18015KT 10SM OVC009 07/06 A2980 RMK AO2 T00720056 =
2018-01-20 00:53 METAR KICT 200653Z 18010KT 10SM BKN250 05/02 A2981 RMK AO2 SLP095 T00500017 =
2018-01-19 23:53 METAR KICT 200553Z 17015KT 10SM BKN250 06/01 A2981 RMK AO2 SLP096 T00610011
                 10106 20050 401441028 50001 =
2018-01-19 22:53 METAR KICT 200453Z 17014KT 10SM FEW250 06/M01 A2981 RMK AO2 SLP099 T00611006 =
2018-01-19 21:53 METAR KICT 200353Z 18010KT 10SM FEW250 05/M03 A2981 RMK AO2 SLP101 T00501033 =
2018-01-19 20:53 METAR KICT 200253Z 18012KT 10SM FEW250 07/M04 A2980 RMK AO2 SLP098 T00721039
                 51007 =
2018-01-19 19:53 METAR KICT 200153Z 17011KT 10SM SCT250 08/M04 A2980 RMK AO2 SLP096 T00831039 =
2018-01-19 18:53 METAR KICT 200053Z 17011KT 10SM SCT250 09/M04 A2979 RMK AO2 SLP096 T00941044 =
2018-01-19 17:53 METAR KICT 192353Z 18014KT 10SM BKN250 11/M04 A2978 RMK AO2 SLP090 T01111044
                 10144 20083 55003 =
2018-01-19 16:53 METAR KICT 192253Z 17014KT 10SM BKN250 13/M05 A2977 RMK AO2 SLP086 T01281050 =
2018-01-19 15:53 METAR KICT 192153Z 18020KT 10SM OVC250 14/M06 A2978 RMK AO2 PK WND 18026/2128
                 SLP086 T01441056 =
2018-01-19 14:53 METAR KICT 192053Z 18017G24KT 10SM OVC250 13/M06 A2979 RMK AO2 PK WND 18026/2017
                 SLP091 T01331061 56033 =
2018-01-19 13:53 METAR KICT 191953Z 18021KT 10SM OVC250 13/M06 A2981 RMK AO2 PK WND 18026/1908
                 SLP098 T01281061 =
2018-01-19 12:53 METAR KICT 191853Z 18020KT 10SM BKN250 12/M06 A2985 RMK AO2 SLP111 T01171061 =
2018-01-19 11:53 METAR KICT 191753Z 17018G22KT 10SM BKN250 08/M06 A2989 RMK AO2 PRESFR SLP127
                 T00831061 10083 21028 58014 =
2018-01-19 10:53 METAR KICT 191653Z 18014KT 10SM BKN250 06/M07 A2994 RMK AO2 SLP144 T00561067 =
2018-01-19 09:53 METAR KICT 191553Z 19016KT 10SM FEW200 BKN250 02/M07 A2995 RMK AO2 SLP149
                 T00171072 =
2018-01-19 08:53 METAR KICT 191453Z 18014KT 10SM FEW200 BKN250 M01/M08 A2993 RMK AO2 SLP146
                 T10061078 55008 =
2018-01-19 07:53 METAR KICT 191353Z 18013KT 10SM FEW200 BKN250 M02/M08 A2993 RMK AO2 SLP143
                 T10221083 =

Support USWX by starting your Amazon purchase here.